<?xml version="1.0" encoding="UTF-8" standalone="no" ?>
<gpx xmlns="http://www.topografix.com/GPX/1/1" xmlns:xsi="http://www.w3.org/2001/XMLSchema-instance" xsi:schemaLocation="http://www.topografix.com/GPX/1/1 http://www.topografix.com/GPX/1/1/gpx.xsd" version="1.1" creator="VisuGPX - https://www.visugpx.com">
  <metadata>
    <name>2019-10-10 08:50</name>
    <desc><![CDATA[
<p>Heure de départ: 10/10/2019 08:50</p><p>Heure d'arrivée: 10/10/2019 16:53</p><p>Distance: 13 km (08:03)</p><p>Temps déplacement: 03:54</p><p>Vitesse moyenne: 1,62 km/h</p><p>Vitesse moyenne mouv.: 3,33 km/h</p><p>Vitesse Max.: 9,37km/h</p><p>Altitude minimale: 1247 m</p><p>Altitude maximale: 2573 m</p><p>Vitesse de montée: 349,7 m/h</p><p>Vitesse de descente: -453,7 m/h</p><p>Gain d'altitude: 1553 m</p><p>Perte d'altitude: -1560 m</p><p>Temps de montée: 04:26</p><p>Temps de descente: 03:26</p><hr align="center" width="480" style="height: 2px; width: 517px"/>]]></desc>
  </metadata>
  <wpt lat="44.72655" lon="5.95638">
    <ele>2417.36</ele>
    <name><![CDATA[]]></name>
    <type><![CDATA[Jalon]]></type>
  </wpt>
  <wpt lat="44.72237" lon="5.96029">
    <ele>2566.33</ele>
    <name><![CDATA[Roc Roux]]></name>
    <type><![CDATA[Jalon]]></type>
  </wpt>
  <wpt lat="44.71731" lon="5.96378">
    <ele>2568.37</ele>
    <name><![CDATA[Tete du Collier]]></name>
    <type><![CDATA[Jalon]]></type>
  </wpt>
  <wpt lat="44.71389" lon="5.96654">
    <ele>2560.01</ele>
    <name><![CDATA[Tête de Claudel]]></name>
    <type><![CDATA[Jalon]]></type>
  </wpt>
  <wpt lat="44.71017" lon="5.97088">
    <ele>2367.08</ele>
    <name><![CDATA[Tête de Girbault]]></name>
    <type><![CDATA[Jalon]]></type>
  </wpt>
  <trk>
    <name><![CDATA[2019-10-10 08:50]]></name>
    <desc><![CDATA[<p>Heure de départ: 10/10/2019 08:50</p><p>Heure d'arrivée: 10/10/2019 16:53</p><p>Distance: 13 km (08:03)</p><p>Temps déplacement: 03:54</p><p>Vitesse moyenne: 1,62 km/h</p><p>Vitesse moyenne mouv.: 3,33 km/h</p><p>Vitesse Max.: 9,37km/h</p><p>Altitude minimale: 1247 m</p><p>Altitude maximale: 2573 m</p><p>Vitesse de montée: 349,7 m/h</p><p>Vitesse de descente: -453,7 m/h</p><p>Gain d'altitude: 1553 m</p><p>Perte d'altitude: -1560 m</p><p>Temps de montée: 04:26</p><p>Temps de descente: 03:26</p><hr align="center" width="480" style="height: 2px; width: 517px"/>]]></desc>
    <trkseg>
      <trkpt lat="44.72185" lon="5.9265">
        <ele>1298.64</ele>
        <time>2019-10-10T06:50:03Z</time>
      </trkpt>
      <trkpt lat="44.72203" lon="5.92655">
        <ele>1300.16</ele>
        <time>2019-10-10T06:51:17Z</time>
      </trkpt>
      <trkpt lat="44.72221" lon="5.92674">
        <ele>1300.04</ele>
        <time>2019-10-10T06:51:37Z</time>
      </trkpt>
      <trkpt lat="44.72238" lon="5.92678">
        <ele>1306.06</ele>
        <time>2019-10-10T06:51:45Z</time>
      </trkpt>
      <trkpt lat="44.72259" lon="5.92686">
        <ele>1304.4</ele>
        <time>2019-10-10T06:51:59Z</time>
      </trkpt>
      <trkpt lat="44.72277" lon="5.92694">
        <ele>1303.21</ele>
        <time>2019-10-10T06:52:11Z</time>
      </trkpt>
      <trkpt lat="44.72299" lon="5.92703">
        <ele>1305.14</ele>
        <time>2019-10-10T06:52:25Z</time>
      </trkpt>
      <trkpt lat="44.72318" lon="5.92707">
        <ele>1303.57</ele>
        <time>2019-10-10T06:53:17Z</time>
      </trkpt>
      <trkpt lat="44.72325" lon="5.92732">
        <ele>1314.63</ele>
        <time>2019-10-10T06:53:45Z</time>
      </trkpt>
      <trkpt lat="44.72327" lon="5.92757">
        <ele>1316.94</ele>
        <time>2019-10-10T06:54:05Z</time>
      </trkpt>
      <trkpt lat="44.72336" lon="5.9278">
        <ele>1328.07</ele>
        <time>2019-10-10T06:54:25Z</time>
      </trkpt>
      <trkpt lat="44.72343" lon="5.92805">
        <ele>1333.12</ele>
        <time>2019-10-10T06:54:53Z</time>
      </trkpt>
      <trkpt lat="44.72346" lon="5.92832">
        <ele>1332.63</ele>
        <time>2019-10-10T06:55:13Z</time>
      </trkpt>
      <trkpt lat="44.72356" lon="5.92853">
        <ele>1331.21</ele>
        <time>2019-10-10T06:55:25Z</time>
      </trkpt>
      <trkpt lat="44.72359" lon="5.92881">
        <ele>1336.15</ele>
        <time>2019-10-10T06:55:59Z</time>
      </trkpt>
      <trkpt lat="44.72365" lon="5.92905">
        <ele>1345.39</ele>
        <time>2019-10-10T06:56:23Z</time>
      </trkpt>
      <trkpt lat="44.72373" lon="5.9293">
        <ele>1348.03</ele>
        <time>2019-10-10T06:56:47Z</time>
      </trkpt>
      <trkpt lat="44.72377" lon="5.92956">
        <ele>1352.27</ele>
        <time>2019-10-10T06:57:13Z</time>
      </trkpt>
      <trkpt lat="44.72377" lon="5.92981">
        <ele>1353.16</ele>
        <time>2019-10-10T06:57:33Z</time>
      </trkpt>
      <trkpt lat="44.7238" lon="5.93008">
        <ele>1365.94</ele>
        <time>2019-10-10T06:58:01Z</time>
      </trkpt>
      <trkpt lat="44.72384" lon="5.93034">
        <ele>1375.25</ele>
        <time>2019-10-10T06:58:21Z</time>
      </trkpt>
      <trkpt lat="44.72395" lon="5.93055">
        <ele>1380.11</ele>
        <time>2019-10-10T06:58:37Z</time>
      </trkpt>
      <trkpt lat="44.72404" lon="5.9308">
        <ele>1380.76</ele>
        <time>2019-10-10T06:59:13Z</time>
      </trkpt>
      <trkpt lat="44.72421" lon="5.93093">
        <ele>1379.71</ele>
        <time>2019-10-10T06:59:27Z</time>
      </trkpt>
      <trkpt lat="44.72436" lon="5.93109">
        <ele>1390.17</ele>
        <time>2019-10-10T07:00:05Z</time>
      </trkpt>
      <trkpt lat="44.7245" lon="5.93128">
        <ele>1393.35</ele>
        <time>2019-10-10T07:00:25Z</time>
      </trkpt>
      <trkpt lat="44.72456" lon="5.93153">
        <ele>1399.35</ele>
        <time>2019-10-10T07:00:41Z</time>
      </trkpt>
      <trkpt lat="44.72453" lon="5.93179">
        <ele>1399.16</ele>
        <time>2019-10-10T07:00:59Z</time>
      </trkpt>
      <trkpt lat="44.72449" lon="5.93205">
        <ele>1403.12</ele>
        <time>2019-10-10T07:01:27Z</time>
      </trkpt>
      <trkpt lat="44.72438" lon="5.93227">
        <ele>1400.52</ele>
        <time>2019-10-10T07:01:49Z</time>
      </trkpt>
      <trkpt lat="44.72438" lon="5.93252">
        <ele>1411.44</ele>
        <time>2019-10-10T07:03:35Z</time>
      </trkpt>
      <trkpt lat="44.72437" lon="5.93279">
        <ele>1408.98</ele>
        <time>2019-10-10T07:03:57Z</time>
      </trkpt>
      <trkpt lat="44.72431" lon="5.93304">
        <ele>1408.98</ele>
        <time>2019-10-10T07:04:15Z</time>
      </trkpt>
      <trkpt lat="44.72433" lon="5.93331">
        <ele>1413.09</ele>
        <time>2019-10-10T07:04:39Z</time>
      </trkpt>
      <trkpt lat="44.72429" lon="5.93356">
        <ele>1425.51</ele>
        <time>2019-10-10T07:04:59Z</time>
      </trkpt>
      <trkpt lat="44.72429" lon="5.93382">
        <ele>1429.47</ele>
        <time>2019-10-10T07:05:29Z</time>
      </trkpt>
      <trkpt lat="44.7242" lon="5.93406">
        <ele>1432.19</ele>
        <time>2019-10-10T07:06:07Z</time>
      </trkpt>
      <trkpt lat="44.72411" lon="5.93428">
        <ele>1439.31</ele>
        <time>2019-10-10T07:06:27Z</time>
      </trkpt>
      <trkpt lat="44.72401" lon="5.9345">
        <ele>1438.76</ele>
        <time>2019-10-10T07:06:47Z</time>
      </trkpt>
      <trkpt lat="44.72389" lon="5.9347">
        <ele>1440.13</ele>
        <time>2019-10-10T07:07:05Z</time>
      </trkpt>
      <trkpt lat="44.72375" lon="5.9349">
        <ele>1442.91</ele>
        <time>2019-10-10T07:07:19Z</time>
      </trkpt>
      <trkpt lat="44.72363" lon="5.93514">
        <ele>1442.35</ele>
        <time>2019-10-10T07:07:37Z</time>
      </trkpt>
      <trkpt lat="44.72346" lon="5.93524">
        <ele>1446.81</ele>
        <time>2019-10-10T07:08:05Z</time>
      </trkpt>
      <trkpt lat="44.72331" lon="5.93538">
        <ele>1443.33</ele>
        <time>2019-10-10T07:08:19Z</time>
      </trkpt>
      <trkpt lat="44.72313" lon="5.93542">
        <ele>1437.13</ele>
        <time>2019-10-10T07:08:49Z</time>
      </trkpt>
      <trkpt lat="44.72294" lon="5.93543">
        <ele>1433.07</ele>
        <time>2019-10-10T07:09:07Z</time>
      </trkpt>
      <trkpt lat="44.7228" lon="5.93562">
        <ele>1429.45</ele>
        <time>2019-10-10T07:09:27Z</time>
      </trkpt>
      <trkpt lat="44.72265" lon="5.93579">
        <ele>1435.11</ele>
        <time>2019-10-10T07:09:41Z</time>
      </trkpt>
      <trkpt lat="44.72261" lon="5.93604">
        <ele>1440.49</ele>
        <time>2019-10-10T07:10:19Z</time>
      </trkpt>
      <trkpt lat="44.72262" lon="5.93631">
        <ele>1443.56</ele>
        <time>2019-10-10T07:10:57Z</time>
      </trkpt>
      <trkpt lat="44.72267" lon="5.93658">
        <ele>1457.19</ele>
        <time>2019-10-10T07:11:37Z</time>
      </trkpt>
      <trkpt lat="44.72278" lon="5.93678">
        <ele>1463.92</ele>
        <time>2019-10-10T07:12:25Z</time>
      </trkpt>
      <trkpt lat="44.72294" lon="5.93693">
        <ele>1466.51</ele>
        <time>2019-10-10T07:13:01Z</time>
      </trkpt>
      <trkpt lat="44.72298" lon="5.9372">
        <ele>1470.15</ele>
        <time>2019-10-10T07:13:51Z</time>
      </trkpt>
      <trkpt lat="44.72301" lon="5.93745">
        <ele>1487.33</ele>
        <time>2019-10-10T07:14:33Z</time>
      </trkpt>
      <trkpt lat="44.723" lon="5.93774">
        <ele>1499.37</ele>
        <time>2019-10-10T07:16:35Z</time>
      </trkpt>
      <trkpt lat="44.72306" lon="5.938">
        <ele>1506.36</ele>
        <time>2019-10-10T07:17:17Z</time>
      </trkpt>
      <trkpt lat="44.7231" lon="5.93824">
        <ele>1518.1</ele>
        <time>2019-10-10T07:18:09Z</time>
      </trkpt>
      <trkpt lat="44.72314" lon="5.93851">
        <ele>1519.73</ele>
        <time>2019-10-10T07:18:33Z</time>
      </trkpt>
      <trkpt lat="44.72317" lon="5.93876">
        <ele>1527.12</ele>
        <time>2019-10-10T07:19:19Z</time>
      </trkpt>
      <trkpt lat="44.72321" lon="5.93902">
        <ele>1542.28</ele>
        <time>2019-10-10T07:20:11Z</time>
      </trkpt>
      <trkpt lat="44.72326" lon="5.93927">
        <ele>1542.05</ele>
        <time>2019-10-10T07:20:53Z</time>
      </trkpt>
      <trkpt lat="44.72321" lon="5.93952">
        <ele>1555.12</ele>
        <time>2019-10-10T07:21:41Z</time>
      </trkpt>
      <trkpt lat="44.72319" lon="5.93978">
        <ele>1565.33</ele>
        <time>2019-10-10T07:22:27Z</time>
      </trkpt>
      <trkpt lat="44.72316" lon="5.94005">
        <ele>1572.96</ele>
        <time>2019-10-10T07:23:19Z</time>
      </trkpt>
      <trkpt lat="44.72313" lon="5.94031">
        <ele>1587.68</ele>
        <time>2019-10-10T07:24:21Z</time>
      </trkpt>
      <trkpt lat="44.72315" lon="5.94057">
        <ele>1590.8</ele>
        <time>2019-10-10T07:24:55Z</time>
      </trkpt>
      <trkpt lat="44.72313" lon="5.94083">
        <ele>1599.11</ele>
        <time>2019-10-10T07:25:59Z</time>
      </trkpt>
      <trkpt lat="44.72315" lon="5.94108">
        <ele>1592.11</ele>
        <time>2019-10-10T07:26:45Z</time>
      </trkpt>
      <trkpt lat="44.72315" lon="5.94134">
        <ele>1605.85</ele>
        <time>2019-10-10T07:27:19Z</time>
      </trkpt>
      <trkpt lat="44.72314" lon="5.9416">
        <ele>1610.33</ele>
        <time>2019-10-10T07:27:57Z</time>
      </trkpt>
      <trkpt lat="44.72313" lon="5.94186">
        <ele>1612.27</ele>
        <time>2019-10-10T07:28:41Z</time>
      </trkpt>
      <trkpt lat="44.72301" lon="5.94209">
        <ele>1632.53</ele>
        <time>2019-10-10T07:29:45Z</time>
      </trkpt>
      <trkpt lat="44.72293" lon="5.94232">
        <ele>1631.15</ele>
        <time>2019-10-10T07:30:45Z</time>
      </trkpt>
      <trkpt lat="44.72289" lon="5.94258">
        <ele>1643.08</ele>
        <time>2019-10-10T07:31:37Z</time>
      </trkpt>
      <trkpt lat="44.72276" lon="5.94276">
        <ele>1651.2</ele>
        <time>2019-10-10T07:32:21Z</time>
      </trkpt>
      <trkpt lat="44.72269" lon="5.94303">
        <ele>1654.11</ele>
        <time>2019-10-10T07:33:25Z</time>
      </trkpt>
      <trkpt lat="44.72271" lon="5.94329">
        <ele>1658.12</ele>
        <time>2019-10-10T07:33:57Z</time>
      </trkpt>
      <trkpt lat="44.72261" lon="5.94351">
        <ele>1668.9</ele>
        <time>2019-10-10T07:35:13Z</time>
      </trkpt>
      <trkpt lat="44.72262" lon="5.94378">
        <ele>1672.42</ele>
        <time>2019-10-10T07:35:47Z</time>
      </trkpt>
      <trkpt lat="44.7226" lon="5.94404">
        <ele>1678.1</ele>
        <time>2019-10-10T07:36:45Z</time>
      </trkpt>
      <trkpt lat="44.72254" lon="5.94429">
        <ele>1688.34</ele>
        <time>2019-10-10T07:37:57Z</time>
      </trkpt>
      <trkpt lat="44.72243" lon="5.9445">
        <ele>1698.31</ele>
        <time>2019-10-10T07:38:51Z</time>
      </trkpt>
      <trkpt lat="44.72244" lon="5.94479">
        <ele>1715.65</ele>
        <time>2019-10-10T07:39:57Z</time>
      </trkpt>
      <trkpt lat="44.72229" lon="5.94495">
        <ele>1724.04</ele>
        <time>2019-10-10T07:41:43Z</time>
      </trkpt>
      <trkpt lat="44.72232" lon="5.9452">
        <ele>1747.3</ele>
        <time>2019-10-10T07:43:07Z</time>
      </trkpt>
      <trkpt lat="44.72231" lon="5.94547">
        <ele>1754.29</ele>
        <time>2019-10-10T07:44:03Z</time>
      </trkpt>
      <trkpt lat="44.72235" lon="5.94575">
        <ele>1756.79</ele>
        <time>2019-10-10T07:44:51Z</time>
      </trkpt>
      <trkpt lat="44.72226" lon="5.94597">
        <ele>1770.26</ele>
        <time>2019-10-10T07:45:35Z</time>
      </trkpt>
      <trkpt lat="44.72222" lon="5.94624">
        <ele>1779.32</ele>
        <time>2019-10-10T07:46:43Z</time>
      </trkpt>
      <trkpt lat="44.7222" lon="5.94649">
        <ele>1793.31</ele>
        <time>2019-10-10T07:47:41Z</time>
      </trkpt>
      <trkpt lat="44.72225" lon="5.94675">
        <ele>1791.64</ele>
        <time>2019-10-10T07:48:41Z</time>
      </trkpt>
      <trkpt lat="44.7221" lon="5.94692">
        <ele>1833.83</ele>
        <time>2019-10-10T07:53:45Z</time>
      </trkpt>
      <trkpt lat="44.72224" lon="5.94713">
        <ele>1832.8</ele>
        <time>2019-10-10T07:54:35Z</time>
      </trkpt>
      <trkpt lat="44.72233" lon="5.94737">
        <ele>1840.75</ele>
        <time>2019-10-10T07:55:43Z</time>
      </trkpt>
      <trkpt lat="44.72227" lon="5.94762">
        <ele>1862.43</ele>
        <time>2019-10-10T07:56:33Z</time>
      </trkpt>
      <trkpt lat="44.72229" lon="5.94788">
        <ele>1869.33</ele>
        <time>2019-10-10T07:57:37Z</time>
      </trkpt>
      <trkpt lat="44.72229" lon="5.94816">
        <ele>1875.16</ele>
        <time>2019-10-10T07:58:21Z</time>
      </trkpt>
      <trkpt lat="44.72239" lon="5.94838">
        <ele>1867.05</ele>
        <time>2019-10-10T07:59:01Z</time>
      </trkpt>
      <trkpt lat="44.72238" lon="5.94865">
        <ele>1891.82</ele>
        <time>2019-10-10T08:00:29Z</time>
      </trkpt>
      <trkpt lat="44.72233" lon="5.94892">
        <ele>1909.73</ele>
        <time>2019-10-10T08:01:41Z</time>
      </trkpt>
      <trkpt lat="44.72221" lon="5.94914">
        <ele>1912.53</ele>
        <time>2019-10-10T08:02:35Z</time>
      </trkpt>
      <trkpt lat="44.72218" lon="5.9494">
        <ele>1932.22</ele>
        <time>2019-10-10T08:04:23Z</time>
      </trkpt>
      <trkpt lat="44.7223" lon="5.94962">
        <ele>1924.95</ele>
        <time>2019-10-10T08:04:55Z</time>
      </trkpt>
      <trkpt lat="44.72236" lon="5.94988">
        <ele>1941.76</ele>
        <time>2019-10-10T08:06:15Z</time>
      </trkpt>
      <trkpt lat="44.72242" lon="5.95016">
        <ele>1954.93</ele>
        <time>2019-10-10T08:08:15Z</time>
      </trkpt>
      <trkpt lat="44.7226" lon="5.9501">
        <ele>1978.48</ele>
        <time>2019-10-10T08:10:37Z</time>
      </trkpt>
      <trkpt lat="44.72275" lon="5.95024">
        <ele>1981.67</ele>
        <time>2019-10-10T08:11:39Z</time>
      </trkpt>
      <trkpt lat="44.72292" lon="5.95032">
        <ele>1988.6</ele>
        <time>2019-10-10T08:12:41Z</time>
      </trkpt>
      <trkpt lat="44.7231" lon="5.95037">
        <ele>2020.54</ele>
        <time>2019-10-10T08:14:09Z</time>
      </trkpt>
      <trkpt lat="44.72324" lon="5.95056">
        <ele>2030.4</ele>
        <time>2019-10-10T08:15:21Z</time>
      </trkpt>
      <trkpt lat="44.7234" lon="5.95067">
        <ele>2030.85</ele>
        <time>2019-10-10T08:16:13Z</time>
      </trkpt>
      <trkpt lat="44.72357" lon="5.95076">
        <ele>2054.12</ele>
        <time>2019-10-10T08:17:33Z</time>
      </trkpt>
      <trkpt lat="44.72363" lon="5.95102">
        <ele>2062.96</ele>
        <time>2019-10-10T08:19:23Z</time>
      </trkpt>
      <trkpt lat="44.72381" lon="5.95115">
        <ele>2072.76</ele>
        <time>2019-10-10T08:20:17Z</time>
      </trkpt>
      <trkpt lat="44.72386" lon="5.95139">
        <ele>2094.85</ele>
        <time>2019-10-10T08:21:59Z</time>
      </trkpt>
      <trkpt lat="44.72406" lon="5.95136">
        <ele>2080.7</ele>
        <time>2019-10-10T08:23:51Z</time>
      </trkpt>
      <trkpt lat="44.72424" lon="5.95127">
        <ele>2101.71</ele>
        <time>2019-10-10T08:24:53Z</time>
      </trkpt>
      <trkpt lat="44.72561" lon="5.95232">
        <ele>2225.07</ele>
        <time>2019-10-10T08:40:06Z</time>
      </trkpt>
      <trkpt lat="44.7257" lon="5.95255">
        <ele>2244.14</ele>
        <time>2019-10-10T08:42:05Z</time>
      </trkpt>
      <trkpt lat="44.72572" lon="5.95281">
        <ele>2260.55</ele>
        <time>2019-10-10T08:52:45Z</time>
      </trkpt>
      <trkpt lat="44.72574" lon="5.95307">
        <ele>2265.64</ele>
        <time>2019-10-10T08:53:21Z</time>
      </trkpt>
      <trkpt lat="44.72576" lon="5.95333">
        <ele>2274.95</ele>
        <time>2019-10-10T08:54:19Z</time>
      </trkpt>
      <trkpt lat="44.72577" lon="5.95358">
        <ele>2287.19</ele>
        <time>2019-10-10T08:56:35Z</time>
      </trkpt>
      <trkpt lat="44.72576" lon="5.95387">
        <ele>2293.01</ele>
        <time>2019-10-10T08:57:07Z</time>
      </trkpt>
      <trkpt lat="44.72568" lon="5.95411">
        <ele>2295.2</ele>
        <time>2019-10-10T08:57:37Z</time>
      </trkpt>
      <trkpt lat="44.72572" lon="5.95436">
        <ele>2305.18</ele>
        <time>2019-10-10T08:58:57Z</time>
      </trkpt>
      <trkpt lat="44.72579" lon="5.9546">
        <ele>2312.75</ele>
        <time>2019-10-10T09:00:27Z</time>
      </trkpt>
      <trkpt lat="44.72593" lon="5.95482">
        <ele>2323.25</ele>
        <time>2019-10-10T09:01:39Z</time>
      </trkpt>
      <trkpt lat="44.72594" lon="5.95509">
        <ele>2334.48</ele>
        <time>2019-10-10T09:02:51Z</time>
      </trkpt>
      <trkpt lat="44.72596" lon="5.95536">
        <ele>2343.71</ele>
        <time>2019-10-10T09:04:01Z</time>
      </trkpt>
      <trkpt lat="44.72608" lon="5.95558">
        <ele>2361.73</ele>
        <time>2019-10-10T09:05:41Z</time>
      </trkpt>
      <trkpt lat="44.72611" lon="5.95584">
        <ele>2370.32</ele>
        <time>2019-10-10T09:06:45Z</time>
      </trkpt>
      <trkpt lat="44.72622" lon="5.95604">
        <ele>2381.6</ele>
        <time>2019-10-10T09:08:11Z</time>
      </trkpt>
      <trkpt lat="44.72628" lon="5.95631">
        <ele>2393.62</ele>
        <time>2019-10-10T09:09:03Z</time>
      </trkpt>
      <trkpt lat="44.72645" lon="5.95645">
        <ele>2411.23</ele>
        <time>2019-10-10T09:11:11Z</time>
      </trkpt>
      <trkpt lat="44.72663" lon="5.95641">
        <ele>2421.32</ele>
        <time>2019-10-10T09:13:23Z</time>
      </trkpt>
      <trkpt lat="44.72659" lon="5.95666">
        <ele>2423.38</ele>
        <time>2019-10-10T09:20:43Z</time>
      </trkpt>
      <trkpt lat="44.72659" lon="5.95696">
        <ele>2443.36</ele>
        <time>2019-10-10T09:22:35Z</time>
      </trkpt>
      <trkpt lat="44.72675" lon="5.95711">
        <ele>2454.93</ele>
        <time>2019-10-10T09:24:15Z</time>
      </trkpt>
      <trkpt lat="44.72675" lon="5.95737">
        <ele>2468.71</ele>
        <time>2019-10-10T09:27:23Z</time>
      </trkpt>
      <trkpt lat="44.72667" lon="5.9576">
        <ele>2473.27</ele>
        <time>2019-10-10T09:29:17Z</time>
      </trkpt>
      <trkpt lat="44.72657" lon="5.95782">
        <ele>2478.6</ele>
        <time>2019-10-10T09:31:05Z</time>
      </trkpt>
      <trkpt lat="44.72644" lon="5.95801">
        <ele>2481.56</ele>
        <time>2019-10-10T09:31:49Z</time>
      </trkpt>
      <trkpt lat="44.72626" lon="5.9581">
        <ele>2487.5</ele>
        <time>2019-10-10T09:32:33Z</time>
      </trkpt>
      <trkpt lat="44.72607" lon="5.95812">
        <ele>2480.57</ele>
        <time>2019-10-10T09:33:13Z</time>
      </trkpt>
      <trkpt lat="44.72591" lon="5.95801">
        <ele>2463.02</ele>
        <time>2019-10-10T09:34:39Z</time>
      </trkpt>
      <trkpt lat="44.72572" lon="5.95798">
        <ele>2462.77</ele>
        <time>2019-10-10T09:35:29Z</time>
      </trkpt>
      <trkpt lat="44.72559" lon="5.95816">
        <ele>2472.55</ele>
        <time>2019-10-10T09:36:53Z</time>
      </trkpt>
      <trkpt lat="44.72542" lon="5.95829">
        <ele>2476.56</ele>
        <time>2019-10-10T09:37:47Z</time>
      </trkpt>
      <trkpt lat="44.72524" lon="5.95839">
        <ele>2482.67</ele>
        <time>2019-10-10T09:38:57Z</time>
      </trkpt>
      <trkpt lat="44.72505" lon="5.95842">
        <ele>2482.62</ele>
        <time>2019-10-10T09:39:35Z</time>
      </trkpt>
      <trkpt lat="44.72487" lon="5.95845">
        <ele>2485.81</ele>
        <time>2019-10-10T09:40:13Z</time>
      </trkpt>
      <trkpt lat="44.72469" lon="5.95843">
        <ele>2492.4</ele>
        <time>2019-10-10T09:41:11Z</time>
      </trkpt>
      <trkpt lat="44.72452" lon="5.95835">
        <ele>2488.4</ele>
        <time>2019-10-10T09:42:53Z</time>
      </trkpt>
      <trkpt lat="44.72433" lon="5.9584">
        <ele>2500.26</ele>
        <time>2019-10-10T09:44:31Z</time>
      </trkpt>
      <trkpt lat="44.72413" lon="5.95838">
        <ele>2509.84</ele>
        <time>2019-10-10T09:45:13Z</time>
      </trkpt>
      <trkpt lat="44.72403" lon="5.9586">
        <ele>2519.71</ele>
        <time>2019-10-10T09:46:11Z</time>
      </trkpt>
      <trkpt lat="44.72388" lon="5.95878">
        <ele>2511.83</ele>
        <time>2019-10-10T09:46:41Z</time>
      </trkpt>
      <trkpt lat="44.72377" lon="5.95904">
        <ele>2503.62</ele>
        <time>2019-10-10T09:47:43Z</time>
      </trkpt>
      <trkpt lat="44.7236" lon="5.95915">
        <ele>2511.35</ele>
        <time>2019-10-10T09:48:01Z</time>
      </trkpt>
      <trkpt lat="44.72357" lon="5.95941">
        <ele>2505.76</ele>
        <time>2019-10-10T09:54:12Z</time>
      </trkpt>
      <trkpt lat="44.7237" lon="5.95959">
        <ele>2520.17</ele>
        <time>2019-10-10T09:55:42Z</time>
      </trkpt>
      <trkpt lat="44.72356" lon="5.95978">
        <ele>2529.57</ele>
        <time>2019-10-10T09:56:56Z</time>
      </trkpt>
      <trkpt lat="44.72342" lon="5.95998">
        <ele>2533.34</ele>
        <time>2019-10-10T09:57:14Z</time>
      </trkpt>
      <trkpt lat="44.72321" lon="5.96002">
        <ele>2530.79</ele>
        <time>2019-10-10T09:58:02Z</time>
      </trkpt>
      <trkpt lat="44.72304" lon="5.95993">
        <ele>2525.53</ele>
        <time>2019-10-10T09:58:40Z</time>
      </trkpt>
      <trkpt lat="44.72285" lon="5.95996">
        <ele>2527.31</ele>
        <time>2019-10-10T09:59:20Z</time>
      </trkpt>
      <trkpt lat="44.72267" lon="5.96001">
        <ele>2532.89</ele>
        <time>2019-10-10T10:00:24Z</time>
      </trkpt>
      <trkpt lat="44.72251" lon="5.96013">
        <ele>2542.74</ele>
        <time>2019-10-10T10:06:34Z</time>
      </trkpt>
      <trkpt lat="44.72232" lon="5.96015">
        <ele>2530.62</ele>
        <time>2019-10-10T10:08:04Z</time>
      </trkpt>
      <trkpt lat="44.72244" lon="5.96035">
        <ele>2565.55</ele>
        <time>2019-10-10T10:10:10Z</time>
      </trkpt>
      <trkpt lat="44.72038" lon="5.96212">
        <ele>2561.2</ele>
        <time>2019-10-10T10:41:39Z</time>
      </trkpt>
      <trkpt lat="44.72021" lon="5.96223">
        <ele>2556.4</ele>
        <time>2019-10-10T10:42:56Z</time>
      </trkpt>
      <trkpt lat="44.72007" lon="5.96242">
        <ele>2549.96</ele>
        <time>2019-10-10T10:43:40Z</time>
      </trkpt>
      <trkpt lat="44.71993" lon="5.96261">
        <ele>2546.91</ele>
        <time>2019-10-10T10:44:18Z</time>
      </trkpt>
      <trkpt lat="44.71976" lon="5.96271">
        <ele>2533.17</ele>
        <time>2019-10-10T10:45:38Z</time>
      </trkpt>
      <trkpt lat="44.71957" lon="5.96273">
        <ele>2530.31</ele>
        <time>2019-10-10T10:46:20Z</time>
      </trkpt>
      <trkpt lat="44.7194" lon="5.96285">
        <ele>2515.31</ele>
        <time>2019-10-10T10:46:42Z</time>
      </trkpt>
      <trkpt lat="44.71923" lon="5.96298">
        <ele>2519.63</ele>
        <time>2019-10-10T10:46:58Z</time>
      </trkpt>
      <trkpt lat="44.7191" lon="5.96325">
        <ele>2522.51</ele>
        <time>2019-10-10T10:47:40Z</time>
      </trkpt>
      <trkpt lat="44.71896" lon="5.96343">
        <ele>2522.89</ele>
        <time>2019-10-10T10:48:06Z</time>
      </trkpt>
      <trkpt lat="44.71879" lon="5.96351">
        <ele>2523.59</ele>
        <time>2019-10-10T10:48:44Z</time>
      </trkpt>
      <trkpt lat="44.71865" lon="5.96371">
        <ele>2538.93</ele>
        <time>2019-10-10T10:49:14Z</time>
      </trkpt>
      <trkpt lat="44.71847" lon="5.96378">
        <ele>2542.11</ele>
        <time>2019-10-10T10:50:18Z</time>
      </trkpt>
      <trkpt lat="44.71829" lon="5.96387">
        <ele>2557.19</ele>
        <time>2019-10-10T10:51:36Z</time>
      </trkpt>
      <trkpt lat="44.71811" lon="5.96385">
        <ele>2558.4</ele>
        <time>2019-10-10T10:52:06Z</time>
      </trkpt>
      <trkpt lat="44.71793" lon="5.96393">
        <ele>2573.69</ele>
        <time>2019-10-10T10:52:30Z</time>
      </trkpt>
      <trkpt lat="44.7178" lon="5.96372">
        <ele>2564.76</ele>
        <time>2019-10-10T10:52:52Z</time>
      </trkpt>
      <trkpt lat="44.71762" lon="5.96361">
        <ele>2564.26</ele>
        <time>2019-10-10T10:53:24Z</time>
      </trkpt>
      <trkpt lat="44.71744" lon="5.96374">
        <ele>2570.06</ele>
        <time>2019-10-10T10:53:54Z</time>
      </trkpt>
      <trkpt lat="44.71726" lon="5.96374">
        <ele>2568.01</ele>
        <time>2019-10-10T10:55:32Z</time>
      </trkpt>
      <trkpt lat="44.71709" lon="5.96385">
        <ele>2563.41</ele>
        <time>2019-10-10T10:57:00Z</time>
      </trkpt>
      <trkpt lat="44.71692" lon="5.96394">
        <ele>2568.34</ele>
        <time>2019-10-10T10:57:22Z</time>
      </trkpt>
      <trkpt lat="44.71679" lon="5.96411">
        <ele>2561.45</ele>
        <time>2019-10-10T10:57:54Z</time>
      </trkpt>
      <trkpt lat="44.71661" lon="5.96415">
        <ele>2555.4</ele>
        <time>2019-10-10T10:58:22Z</time>
      </trkpt>
      <trkpt lat="44.71647" lon="5.96431">
        <ele>2559.13</ele>
        <time>2019-10-10T10:58:36Z</time>
      </trkpt>
      <trkpt lat="44.71638" lon="5.96455">
        <ele>2546.78</ele>
        <time>2019-10-10T10:59:20Z</time>
      </trkpt>
      <trkpt lat="44.7163" lon="5.9648">
        <ele>2529.24</ele>
        <time>2019-10-10T11:01:00Z</time>
      </trkpt>
      <trkpt lat="44.71616" lon="5.96497">
        <ele>2526.36</ele>
        <time>2019-10-10T11:02:10Z</time>
      </trkpt>
      <trkpt lat="44.71603" lon="5.96514">
        <ele>2521</ele>
        <time>2019-10-10T11:02:36Z</time>
      </trkpt>
      <trkpt lat="44.71606" lon="5.96539">
        <ele>2512.41</ele>
        <time>2019-10-10T11:03:32Z</time>
      </trkpt>
      <trkpt lat="44.71586" lon="5.96551">
        <ele>2509.03</ele>
        <time>2019-10-10T11:03:52Z</time>
      </trkpt>
      <trkpt lat="44.7157" lon="5.96568">
        <ele>2502.41</ele>
        <time>2019-10-10T11:04:38Z</time>
      </trkpt>
      <trkpt lat="44.71556" lon="5.96584">
        <ele>2503.58</ele>
        <time>2019-10-10T11:05:22Z</time>
      </trkpt>
      <trkpt lat="44.71539" lon="5.96594">
        <ele>2508.13</ele>
        <time>2019-10-10T11:07:04Z</time>
      </trkpt>
      <trkpt lat="44.7152" lon="5.96601">
        <ele>2515.06</ele>
        <time>2019-10-10T11:08:00Z</time>
      </trkpt>
      <trkpt lat="44.71505" lon="5.96617">
        <ele>2520.25</ele>
        <time>2019-10-10T11:08:48Z</time>
      </trkpt>
      <trkpt lat="44.71486" lon="5.9662">
        <ele>2530.2</ele>
        <time>2019-10-10T11:09:38Z</time>
      </trkpt>
      <trkpt lat="44.71467" lon="5.96629">
        <ele>2528.31</ele>
        <time>2019-10-10T11:10:06Z</time>
      </trkpt>
      <trkpt lat="44.71448" lon="5.96633">
        <ele>2538.36</ele>
        <time>2019-10-10T11:11:38Z</time>
      </trkpt>
      <trkpt lat="44.7143" lon="5.96637">
        <ele>2547.13</ele>
        <time>2019-10-10T11:12:28Z</time>
      </trkpt>
      <trkpt lat="44.71414" lon="5.96654">
        <ele>2553.13</ele>
        <time>2019-10-10T11:13:12Z</time>
      </trkpt>
      <trkpt lat="44.71394" lon="5.96649">
        <ele>2560.16</ele>
        <time>2019-10-10T11:14:02Z</time>
      </trkpt>
      <trkpt lat="44.71379" lon="5.96665">
        <ele>2557.7</ele>
        <time>2019-10-10T11:20:38Z</time>
      </trkpt>
      <trkpt lat="44.71365" lon="5.96683">
        <ele>2547.56</ele>
        <time>2019-10-10T11:21:22Z</time>
      </trkpt>
      <trkpt lat="44.71352" lon="5.96702">
        <ele>2545.4</ele>
        <time>2019-10-10T11:21:50Z</time>
      </trkpt>
      <trkpt lat="44.71338" lon="5.96722">
        <ele>2540.97</ele>
        <time>2019-10-10T11:22:44Z</time>
      </trkpt>
      <trkpt lat="44.71335" lon="5.96748">
        <ele>2532.08</ele>
        <time>2019-10-10T11:24:18Z</time>
      </trkpt>
      <trkpt lat="44.71316" lon="5.96748">
        <ele>2523.39</ele>
        <time>2019-10-10T11:25:22Z</time>
      </trkpt>
      <trkpt lat="44.71301" lon="5.96762">
        <ele>2516</ele>
        <time>2019-10-10T11:26:08Z</time>
      </trkpt>
      <trkpt lat="44.71284" lon="5.96776">
        <ele>2503.99</ele>
        <time>2019-10-10T11:27:06Z</time>
      </trkpt>
      <trkpt lat="44.7129" lon="5.96802">
        <ele>2491.38</ele>
        <time>2019-10-10T11:28:30Z</time>
      </trkpt>
      <trkpt lat="44.71285" lon="5.96826">
        <ele>2478.16</ele>
        <time>2019-10-10T11:29:56Z</time>
      </trkpt>
      <trkpt lat="44.71265" lon="5.96826">
        <ele>2447.61</ele>
        <time>2019-10-10T11:32:42Z</time>
      </trkpt>
      <trkpt lat="44.71247" lon="5.96829">
        <ele>2439.53</ele>
        <time>2019-10-10T11:33:56Z</time>
      </trkpt>
      <trkpt lat="44.71241" lon="5.96856">
        <ele>2412.54</ele>
        <time>2019-10-10T11:38:30Z</time>
      </trkpt>
      <trkpt lat="44.71235" lon="5.96883">
        <ele>2410.29</ele>
        <time>2019-10-10T11:40:30Z</time>
      </trkpt>
      <trkpt lat="44.7122" lon="5.96899">
        <ele>2406.93</ele>
        <time>2019-10-10T11:41:54Z</time>
      </trkpt>
      <trkpt lat="44.71204" lon="5.96916">
        <ele>2389.52</ele>
        <time>2019-10-10T11:42:52Z</time>
      </trkpt>
      <trkpt lat="44.71189" lon="5.96933">
        <ele>2386.56</ele>
        <time>2019-10-10T11:43:20Z</time>
      </trkpt>
      <trkpt lat="44.71175" lon="5.96949">
        <ele>2385.73</ele>
        <time>2019-10-10T11:43:48Z</time>
      </trkpt>
      <trkpt lat="44.7116" lon="5.96965">
        <ele>2375.57</ele>
        <time>2019-10-10T11:44:32Z</time>
      </trkpt>
      <trkpt lat="44.71142" lon="5.96976">
        <ele>2373.68</ele>
        <time>2019-10-10T11:45:04Z</time>
      </trkpt>
      <trkpt lat="44.71129" lon="5.96994">
        <ele>2363.4</ele>
        <time>2019-10-10T11:45:52Z</time>
      </trkpt>
      <trkpt lat="44.71113" lon="5.97005">
        <ele>2365.75</ele>
        <time>2019-10-10T11:46:18Z</time>
      </trkpt>
      <trkpt lat="44.71095" lon="5.97021">
        <ele>2359.17</ele>
        <time>2019-10-10T11:46:46Z</time>
      </trkpt>
      <trkpt lat="44.71078" lon="5.97033">
        <ele>2355.63</ele>
        <time>2019-10-10T11:47:10Z</time>
      </trkpt>
      <trkpt lat="44.71062" lon="5.97042">
        <ele>2354.17</ele>
        <time>2019-10-10T11:47:34Z</time>
      </trkpt>
      <trkpt lat="44.71024" lon="5.97076">
        <ele>2353.51</ele>
        <time>2019-10-10T11:49:47Z</time>
      </trkpt>
      <trkpt lat="44.70995" lon="5.97115">
        <ele>2368.57</ele>
        <time>2019-10-10T11:49:53Z</time>
      </trkpt>
      <trkpt lat="44.71016" lon="5.97086">
        <ele>2365.96</ele>
        <time>2019-10-10T11:50:17Z</time>
      </trkpt>
      <trkpt lat="44.70998" lon="5.97083">
        <ele>2363.16</ele>
        <time>2019-10-10T11:57:51Z</time>
      </trkpt>
      <trkpt lat="44.70978" lon="5.97084">
        <ele>2359.37</ele>
        <time>2019-10-10T11:58:09Z</time>
      </trkpt>
      <trkpt lat="44.70961" lon="5.97096">
        <ele>2354.89</ele>
        <time>2019-10-10T11:58:31Z</time>
      </trkpt>
      <trkpt lat="44.70946" lon="5.97113">
        <ele>2344.57</ele>
        <time>2019-10-10T11:58:57Z</time>
      </trkpt>
      <trkpt lat="44.7093" lon="5.97125">
        <ele>2333.26</ele>
        <time>2019-10-10T11:59:55Z</time>
      </trkpt>
      <trkpt lat="44.70913" lon="5.97134">
        <ele>2324.07</ele>
        <time>2019-10-10T12:00:25Z</time>
      </trkpt>
      <trkpt lat="44.70894" lon="5.97144">
        <ele>2315.55</ele>
        <time>2019-10-10T12:00:53Z</time>
      </trkpt>
      <trkpt lat="44.70874" lon="5.97151">
        <ele>2318.52</ele>
        <time>2019-10-10T12:01:17Z</time>
      </trkpt>
      <trkpt lat="44.70857" lon="5.97161">
        <ele>2306.05</ele>
        <time>2019-10-10T12:01:45Z</time>
      </trkpt>
      <trkpt lat="44.70839" lon="5.97158">
        <ele>2300.93</ele>
        <time>2019-10-10T12:02:11Z</time>
      </trkpt>
      <trkpt lat="44.7082" lon="5.97157">
        <ele>2288.34</ele>
        <time>2019-10-10T12:02:57Z</time>
      </trkpt>
      <trkpt lat="44.70801" lon="5.97153">
        <ele>2276.48</ele>
        <time>2019-10-10T12:03:27Z</time>
      </trkpt>
      <trkpt lat="44.70782" lon="5.97149">
        <ele>2268.14</ele>
        <time>2019-10-10T12:03:59Z</time>
      </trkpt>
      <trkpt lat="44.70764" lon="5.97144">
        <ele>2259.2</ele>
        <time>2019-10-10T12:04:31Z</time>
      </trkpt>
      <trkpt lat="44.70746" lon="5.97135">
        <ele>2253.51</ele>
        <time>2019-10-10T12:05:45Z</time>
      </trkpt>
      <trkpt lat="44.70728" lon="5.97123">
        <ele>2249.39</ele>
        <time>2019-10-10T12:13:43Z</time>
      </trkpt>
      <trkpt lat="44.70712" lon="5.9711">
        <ele>2243.71</ele>
        <time>2019-10-10T12:14:11Z</time>
      </trkpt>
      <trkpt lat="44.70697" lon="5.97094">
        <ele>2234.93</ele>
        <time>2019-10-10T12:14:49Z</time>
      </trkpt>
      <trkpt lat="44.70678" lon="5.97089">
        <ele>2211.3</ele>
        <time>2019-10-10T12:15:33Z</time>
      </trkpt>
      <trkpt lat="44.7066" lon="5.97083">
        <ele>2204.35</ele>
        <time>2019-10-10T12:16:53Z</time>
      </trkpt>
      <trkpt lat="44.70643" lon="5.97072">
        <ele>2197.1</ele>
        <time>2019-10-10T12:17:33Z</time>
      </trkpt>
      <trkpt lat="44.70625" lon="5.97065">
        <ele>2192.01</ele>
        <time>2019-10-10T12:18:03Z</time>
      </trkpt>
      <trkpt lat="44.70607" lon="5.97055">
        <ele>2170.41</ele>
        <time>2019-10-10T12:19:41Z</time>
      </trkpt>
      <trkpt lat="44.70587" lon="5.97049">
        <ele>2160.37</ele>
        <time>2019-10-10T12:20:27Z</time>
      </trkpt>
      <trkpt lat="44.70568" lon="5.97044">
        <ele>2166.1</ele>
        <time>2019-10-10T12:20:49Z</time>
      </trkpt>
      <trkpt lat="44.70551" lon="5.9705">
        <ele>2149.33</ele>
        <time>2019-10-10T12:21:27Z</time>
      </trkpt>
      <trkpt lat="44.70537" lon="5.97033">
        <ele>2140.48</ele>
        <time>2019-10-10T12:22:01Z</time>
      </trkpt>
      <trkpt lat="44.70547" lon="5.97011">
        <ele>2135.68</ele>
        <time>2019-10-10T12:22:57Z</time>
      </trkpt>
      <trkpt lat="44.70558" lon="5.96989">
        <ele>2136.06</ele>
        <time>2019-10-10T12:23:39Z</time>
      </trkpt>
      <trkpt lat="44.7054" lon="5.96975">
        <ele>2109.13</ele>
        <time>2019-10-10T12:25:19Z</time>
      </trkpt>
      <trkpt lat="44.70526" lon="5.9696">
        <ele>2086.81</ele>
        <time>2019-10-10T12:26:29Z</time>
      </trkpt>
      <trkpt lat="44.70507" lon="5.9697">
        <ele>2076.58</ele>
        <time>2019-10-10T12:26:53Z</time>
      </trkpt>
      <trkpt lat="44.70488" lon="5.96955">
        <ele>2077.22</ele>
        <time>2019-10-10T12:27:35Z</time>
      </trkpt>
      <trkpt lat="44.70471" lon="5.96945">
        <ele>2076.14</ele>
        <time>2019-10-10T12:28:07Z</time>
      </trkpt>
      <trkpt lat="44.70452" lon="5.96942">
        <ele>2072.95</ele>
        <time>2019-10-10T12:28:55Z</time>
      </trkpt>
      <trkpt lat="44.70436" lon="5.96956">
        <ele>2055.52</ele>
        <time>2019-10-10T12:33:33Z</time>
      </trkpt>
      <trkpt lat="44.70419" lon="5.9696">
        <ele>2045.19</ele>
        <time>2019-10-10T12:34:53Z</time>
      </trkpt>
      <trkpt lat="44.70426" lon="5.96983">
        <ele>2025.48</ele>
        <time>2019-10-10T12:36:05Z</time>
      </trkpt>
      <trkpt lat="44.70419" lon="5.97007">
        <ele>2002.56</ele>
        <time>2019-10-10T12:37:01Z</time>
      </trkpt>
      <trkpt lat="44.70407" lon="5.97027">
        <ele>1977.05</ele>
        <time>2019-10-10T12:38:39Z</time>
      </trkpt>
      <trkpt lat="44.70398" lon="5.97052">
        <ele>1963.96</ele>
        <time>2019-10-10T12:40:31Z</time>
      </trkpt>
      <trkpt lat="44.70386" lon="5.97073">
        <ele>1954.17</ele>
        <time>2019-10-10T12:41:35Z</time>
      </trkpt>
      <trkpt lat="44.70375" lon="5.97096">
        <ele>1936.62</ele>
        <time>2019-10-10T12:42:51Z</time>
      </trkpt>
      <trkpt lat="44.70356" lon="5.97096">
        <ele>1929.91</ele>
        <time>2019-10-10T12:43:57Z</time>
      </trkpt>
      <trkpt lat="44.70336" lon="5.971">
        <ele>1901.8</ele>
        <time>2019-10-10T12:45:15Z</time>
      </trkpt>
      <trkpt lat="44.70317" lon="5.97094">
        <ele>1885.24</ele>
        <time>2019-10-10T12:46:19Z</time>
      </trkpt>
      <trkpt lat="44.70298" lon="5.97091">
        <ele>1879.97</ele>
        <time>2019-10-10T12:46:51Z</time>
      </trkpt>
      <trkpt lat="44.70278" lon="5.97094">
        <ele>1858.96</ele>
        <time>2019-10-10T12:47:45Z</time>
      </trkpt>
      <trkpt lat="44.7026" lon="5.97082">
        <ele>1837.87</ele>
        <time>2019-10-10T12:48:37Z</time>
      </trkpt>
      <trkpt lat="44.7024" lon="5.97088">
        <ele>1822.36</ele>
        <time>2019-10-10T12:49:37Z</time>
      </trkpt>
      <trkpt lat="44.70218" lon="5.97091">
        <ele>1801.57</ele>
        <time>2019-10-10T12:51:39Z</time>
      </trkpt>
      <trkpt lat="44.70198" lon="5.97076">
        <ele>1786.97</ele>
        <time>2019-10-10T12:52:17Z</time>
      </trkpt>
      <trkpt lat="44.70181" lon="5.97085">
        <ele>1768.12</ele>
        <time>2019-10-10T12:52:57Z</time>
      </trkpt>
      <trkpt lat="44.70162" lon="5.97084">
        <ele>1759.31</ele>
        <time>2019-10-10T12:53:51Z</time>
      </trkpt>
      <trkpt lat="44.70145" lon="5.97074">
        <ele>1757.16</ele>
        <time>2019-10-10T12:54:29Z</time>
      </trkpt>
      <trkpt lat="44.70127" lon="5.97072">
        <ele>1747.86</ele>
        <time>2019-10-10T12:54:51Z</time>
      </trkpt>
      <trkpt lat="44.70108" lon="5.97074">
        <ele>1733.49</ele>
        <time>2019-10-10T12:55:45Z</time>
      </trkpt>
      <trkpt lat="44.69826" lon="5.97015">
        <ele>1578.76</ele>
        <time>2019-10-10T13:07:39Z</time>
      </trkpt>
      <trkpt lat="44.69805" lon="5.97017">
        <ele>1547.24</ele>
        <time>2019-10-10T13:07:42Z</time>
      </trkpt>
      <trkpt lat="44.69811" lon="5.96992">
        <ele>1531.48</ele>
        <time>2019-10-10T13:08:14Z</time>
      </trkpt>
      <trkpt lat="44.69805" lon="5.96968">
        <ele>1537.18</ele>
        <time>2019-10-10T13:08:28Z</time>
      </trkpt>
      <trkpt lat="44.69788" lon="5.96956">
        <ele>1527.39</ele>
        <time>2019-10-10T13:08:46Z</time>
      </trkpt>
      <trkpt lat="44.69768" lon="5.96942">
        <ele>1533.41</ele>
        <time>2019-10-10T13:09:06Z</time>
      </trkpt>
      <trkpt lat="44.69766" lon="5.96916">
        <ele>1533.16</ele>
        <time>2019-10-10T13:09:34Z</time>
      </trkpt>
      <trkpt lat="44.69759" lon="5.96891">
        <ele>1533.35</ele>
        <time>2019-10-10T13:09:52Z</time>
      </trkpt>
      <trkpt lat="44.6975" lon="5.96867">
        <ele>1539.14</ele>
        <time>2019-10-10T13:10:14Z</time>
      </trkpt>
      <trkpt lat="44.6974" lon="5.96841">
        <ele>1537.89</ele>
        <time>2019-10-10T13:10:34Z</time>
      </trkpt>
      <trkpt lat="44.69749" lon="5.96814">
        <ele>1531.03</ele>
        <time>2019-10-10T13:10:50Z</time>
      </trkpt>
      <trkpt lat="44.69749" lon="5.96788">
        <ele>1528.65</ele>
        <time>2019-10-10T13:11:12Z</time>
      </trkpt>
      <trkpt lat="44.69745" lon="5.96761">
        <ele>1528.92</ele>
        <time>2019-10-10T13:11:28Z</time>
      </trkpt>
      <trkpt lat="44.69748" lon="5.96733">
        <ele>1525.04</ele>
        <time>2019-10-10T13:11:46Z</time>
      </trkpt>
      <trkpt lat="44.69748" lon="5.96708">
        <ele>1520.79</ele>
        <time>2019-10-10T13:12:02Z</time>
      </trkpt>
      <trkpt lat="44.69738" lon="5.96681">
        <ele>1517.66</ele>
        <time>2019-10-10T13:12:20Z</time>
      </trkpt>
      <trkpt lat="44.69724" lon="5.96662">
        <ele>1522.56</ele>
        <time>2019-10-10T13:12:30Z</time>
      </trkpt>
      <trkpt lat="44.69715" lon="5.96639">
        <ele>1517.07</ele>
        <time>2019-10-10T13:12:54Z</time>
      </trkpt>
      <trkpt lat="44.69715" lon="5.96613">
        <ele>1514.69</ele>
        <time>2019-10-10T13:13:08Z</time>
      </trkpt>
      <trkpt lat="44.69721" lon="5.96587">
        <ele>1522.76</ele>
        <time>2019-10-10T13:13:32Z</time>
      </trkpt>
      <trkpt lat="44.69717" lon="5.96562">
        <ele>1524.29</ele>
        <time>2019-10-10T13:13:42Z</time>
      </trkpt>
      <trkpt lat="44.69712" lon="5.96535">
        <ele>1518.35</ele>
        <time>2019-10-10T13:14:02Z</time>
      </trkpt>
      <trkpt lat="44.69708" lon="5.96509">
        <ele>1526.02</ele>
        <time>2019-10-10T13:14:14Z</time>
      </trkpt>
      <trkpt lat="44.69705" lon="5.96482">
        <ele>1521.34</ele>
        <time>2019-10-10T13:14:42Z</time>
      </trkpt>
      <trkpt lat="44.69703" lon="5.96456">
        <ele>1522.75</ele>
        <time>2019-10-10T13:15:30Z</time>
      </trkpt>
      <trkpt lat="44.69705" lon="5.96431">
        <ele>1522.88</ele>
        <time>2019-10-10T13:15:42Z</time>
      </trkpt>
      <trkpt lat="44.69705" lon="5.96402">
        <ele>1513.96</ele>
        <time>2019-10-10T13:15:58Z</time>
      </trkpt>
      <trkpt lat="44.69712" lon="5.96377">
        <ele>1518.29</ele>
        <time>2019-10-10T13:16:08Z</time>
      </trkpt>
      <trkpt lat="44.69712" lon="5.96352">
        <ele>1514.25</ele>
        <time>2019-10-10T13:16:20Z</time>
      </trkpt>
      <trkpt lat="44.69715" lon="5.96324">
        <ele>1515.11</ele>
        <time>2019-10-10T13:16:36Z</time>
      </trkpt>
      <trkpt lat="44.69722" lon="5.963">
        <ele>1508.72</ele>
        <time>2019-10-10T13:16:50Z</time>
      </trkpt>
      <trkpt lat="44.69721" lon="5.96272">
        <ele>1516.32</ele>
        <time>2019-10-10T13:17:08Z</time>
      </trkpt>
      <trkpt lat="44.69728" lon="5.96245">
        <ele>1517.41</ele>
        <time>2019-10-10T13:17:30Z</time>
      </trkpt>
      <trkpt lat="44.6973" lon="5.96218">
        <ele>1518.31</ele>
        <time>2019-10-10T13:17:48Z</time>
      </trkpt>
      <trkpt lat="44.69734" lon="5.9619">
        <ele>1517.36</ele>
        <time>2019-10-10T13:18:10Z</time>
      </trkpt>
      <trkpt lat="44.69732" lon="5.96164">
        <ele>1516.36</ele>
        <time>2019-10-10T13:18:26Z</time>
      </trkpt>
      <trkpt lat="44.69742" lon="5.9614">
        <ele>1515.13</ele>
        <time>2019-10-10T13:18:44Z</time>
      </trkpt>
      <trkpt lat="44.69743" lon="5.96113">
        <ele>1516.36</ele>
        <time>2019-10-10T13:19:00Z</time>
      </trkpt>
      <trkpt lat="44.69742" lon="5.96084">
        <ele>1515.55</ele>
        <time>2019-10-10T13:19:14Z</time>
      </trkpt>
      <trkpt lat="44.69739" lon="5.96053">
        <ele>1513.9</ele>
        <time>2019-10-10T13:19:28Z</time>
      </trkpt>
      <trkpt lat="44.69739" lon="5.96021">
        <ele>1507.52</ele>
        <time>2019-10-10T13:19:42Z</time>
      </trkpt>
      <trkpt lat="44.69744" lon="5.95992">
        <ele>1507.6</ele>
        <time>2019-10-10T13:19:58Z</time>
      </trkpt>
      <trkpt lat="44.69746" lon="5.95962">
        <ele>1506.09</ele>
        <time>2019-10-10T13:20:12Z</time>
      </trkpt>
      <trkpt lat="44.6974" lon="5.95932">
        <ele>1501.07</ele>
        <time>2019-10-10T13:20:30Z</time>
      </trkpt>
      <trkpt lat="44.69748" lon="5.95908">
        <ele>1499.62</ele>
        <time>2019-10-10T13:20:40Z</time>
      </trkpt>
      <trkpt lat="44.69748" lon="5.95881">
        <ele>1501.9</ele>
        <time>2019-10-10T13:20:58Z</time>
      </trkpt>
      <trkpt lat="44.69753" lon="5.95854">
        <ele>1501.89</ele>
        <time>2019-10-10T13:21:12Z</time>
      </trkpt>
      <trkpt lat="44.69755" lon="5.95828">
        <ele>1501.17</ele>
        <time>2019-10-10T13:21:26Z</time>
      </trkpt>
      <trkpt lat="44.69757" lon="5.95799">
        <ele>1502.13</ele>
        <time>2019-10-10T13:21:40Z</time>
      </trkpt>
      <trkpt lat="44.69757" lon="5.9577">
        <ele>1501.63</ele>
        <time>2019-10-10T13:21:54Z</time>
      </trkpt>
      <trkpt lat="44.69762" lon="5.95743">
        <ele>1489.19</ele>
        <time>2019-10-10T13:22:08Z</time>
      </trkpt>
      <trkpt lat="44.69768" lon="5.95719">
        <ele>1498.15</ele>
        <time>2019-10-10T13:22:22Z</time>
      </trkpt>
      <trkpt lat="44.69772" lon="5.95692">
        <ele>1499.76</ele>
        <time>2019-10-10T13:22:34Z</time>
      </trkpt>
      <trkpt lat="44.69777" lon="5.95667">
        <ele>1502.36</ele>
        <time>2019-10-10T13:22:50Z</time>
      </trkpt>
      <trkpt lat="44.6978" lon="5.95638">
        <ele>1499.17</ele>
        <time>2019-10-10T13:23:06Z</time>
      </trkpt>
      <trkpt lat="44.69787" lon="5.95614">
        <ele>1496.36</ele>
        <time>2019-10-10T13:23:20Z</time>
      </trkpt>
      <trkpt lat="44.69794" lon="5.9559">
        <ele>1495.55</ele>
        <time>2019-10-10T13:23:34Z</time>
      </trkpt>
      <trkpt lat="44.698" lon="5.95565">
        <ele>1497.19</ele>
        <time>2019-10-10T13:23:48Z</time>
      </trkpt>
      <trkpt lat="44.6981" lon="5.95543">
        <ele>1497.17</ele>
        <time>2019-10-10T13:24:00Z</time>
      </trkpt>
      <trkpt lat="44.69823" lon="5.95525">
        <ele>1496.37</ele>
        <time>2019-10-10T13:24:14Z</time>
      </trkpt>
      <trkpt lat="44.69836" lon="5.95506">
        <ele>1490.85</ele>
        <time>2019-10-10T13:24:48Z</time>
      </trkpt>
      <trkpt lat="44.69852" lon="5.95488">
        <ele>1480.65</ele>
        <time>2019-10-10T13:25:00Z</time>
      </trkpt>
      <trkpt lat="44.69861" lon="5.95462">
        <ele>1486.45</ele>
        <time>2019-10-10T13:25:14Z</time>
      </trkpt>
      <trkpt lat="44.69882" lon="5.95463">
        <ele>1475.86</ele>
        <time>2019-10-10T13:25:28Z</time>
      </trkpt>
      <trkpt lat="44.69898" lon="5.95442">
        <ele>1476.35</ele>
        <time>2019-10-10T13:25:46Z</time>
      </trkpt>
      <trkpt lat="44.69913" lon="5.95428">
        <ele>1467.7</ele>
        <time>2019-10-10T13:25:56Z</time>
      </trkpt>
      <trkpt lat="44.69921" lon="5.95403">
        <ele>1479.23</ele>
        <time>2019-10-10T13:26:10Z</time>
      </trkpt>
      <trkpt lat="44.69927" lon="5.95378">
        <ele>1482.29</ele>
        <time>2019-10-10T13:26:20Z</time>
      </trkpt>
      <trkpt lat="44.6994" lon="5.95356">
        <ele>1471.84</ele>
        <time>2019-10-10T13:26:34Z</time>
      </trkpt>
      <trkpt lat="44.6995" lon="5.95333">
        <ele>1415.86</ele>
        <time>2019-10-10T13:26:50Z</time>
      </trkpt>
      <trkpt lat="44.69963" lon="5.95312">
        <ele>1475.16</ele>
        <time>2019-10-10T13:27:06Z</time>
      </trkpt>
      <trkpt lat="44.69982" lon="5.95299">
        <ele>1484.09</ele>
        <time>2019-10-10T13:27:22Z</time>
      </trkpt>
      <trkpt lat="44.69991" lon="5.95275">
        <ele>1482.62</ele>
        <time>2019-10-10T13:27:34Z</time>
      </trkpt>
      <trkpt lat="44.69999" lon="5.95249">
        <ele>1484.63</ele>
        <time>2019-10-10T13:27:48Z</time>
      </trkpt>
      <trkpt lat="44.70016" lon="5.95234">
        <ele>1485.11</ele>
        <time>2019-10-10T13:28:02Z</time>
      </trkpt>
      <trkpt lat="44.70029" lon="5.95214">
        <ele>1479.2</ele>
        <time>2019-10-10T13:28:16Z</time>
      </trkpt>
      <trkpt lat="44.70044" lon="5.95195">
        <ele>1479.42</ele>
        <time>2019-10-10T13:28:32Z</time>
      </trkpt>
      <trkpt lat="44.70056" lon="5.95176">
        <ele>1474.36</ele>
        <time>2019-10-10T13:28:46Z</time>
      </trkpt>
      <trkpt lat="44.70064" lon="5.95149">
        <ele>1478.3</ele>
        <time>2019-10-10T13:29:02Z</time>
      </trkpt>
      <trkpt lat="44.70083" lon="5.9514">
        <ele>1492.21</ele>
        <time>2019-10-10T13:29:28Z</time>
      </trkpt>
      <trkpt lat="44.70098" lon="5.95121">
        <ele>1494.7</ele>
        <time>2019-10-10T13:30:04Z</time>
      </trkpt>
      <trkpt lat="44.70108" lon="5.95091">
        <ele>1496.05</ele>
        <time>2019-10-10T13:30:18Z</time>
      </trkpt>
      <trkpt lat="44.70114" lon="5.95064">
        <ele>1489.54</ele>
        <time>2019-10-10T13:30:32Z</time>
      </trkpt>
      <trkpt lat="44.70125" lon="5.95043">
        <ele>1490.91</ele>
        <time>2019-10-10T13:30:50Z</time>
      </trkpt>
      <trkpt lat="44.70135" lon="5.95022">
        <ele>1485.76</ele>
        <time>2019-10-10T13:31:08Z</time>
      </trkpt>
      <trkpt lat="44.7015" lon="5.95005">
        <ele>1480.57</ele>
        <time>2019-10-10T13:31:54Z</time>
      </trkpt>
      <trkpt lat="44.70166" lon="5.95018">
        <ele>1470.99</ele>
        <time>2019-10-10T13:38:16Z</time>
      </trkpt>
      <trkpt lat="44.70153" lon="5.95">
        <ele>1486.16</ele>
        <time>2019-10-10T13:49:04Z</time>
      </trkpt>
      <trkpt lat="44.70171" lon="5.94994">
        <ele>1482.2</ele>
        <time>2019-10-10T14:04:08Z</time>
      </trkpt>
      <trkpt lat="44.70182" lon="5.94973">
        <ele>1479.68</ele>
        <time>2019-10-10T14:05:00Z</time>
      </trkpt>
      <trkpt lat="44.70183" lon="5.94944">
        <ele>1481.53</ele>
        <time>2019-10-10T14:05:16Z</time>
      </trkpt>
      <trkpt lat="44.70192" lon="5.94921">
        <ele>1480.48</ele>
        <time>2019-10-10T14:05:26Z</time>
      </trkpt>
      <trkpt lat="44.70194" lon="5.94894">
        <ele>1483.12</ele>
        <time>2019-10-10T14:05:42Z</time>
      </trkpt>
      <trkpt lat="44.70211" lon="5.94879">
        <ele>1484.38</ele>
        <time>2019-10-10T14:05:50Z</time>
      </trkpt>
      <trkpt lat="44.7023" lon="5.9487">
        <ele>1483.49</ele>
        <time>2019-10-10T14:06:06Z</time>
      </trkpt>
      <trkpt lat="44.70248" lon="5.94854">
        <ele>1488.19</ele>
        <time>2019-10-10T14:06:24Z</time>
      </trkpt>
      <trkpt lat="44.70267" lon="5.94836">
        <ele>1490.37</ele>
        <time>2019-10-10T14:06:40Z</time>
      </trkpt>
      <trkpt lat="44.70282" lon="5.9482">
        <ele>1483.73</ele>
        <time>2019-10-10T14:06:54Z</time>
      </trkpt>
      <trkpt lat="44.70294" lon="5.94796">
        <ele>1482.47</ele>
        <time>2019-10-10T14:07:10Z</time>
      </trkpt>
      <trkpt lat="44.70313" lon="5.94787">
        <ele>1482.72</ele>
        <time>2019-10-10T14:07:24Z</time>
      </trkpt>
      <trkpt lat="44.70331" lon="5.94772">
        <ele>1481.71</ele>
        <time>2019-10-10T14:07:36Z</time>
      </trkpt>
      <trkpt lat="44.70342" lon="5.9475">
        <ele>1483.67</ele>
        <time>2019-10-10T14:07:48Z</time>
      </trkpt>
      <trkpt lat="44.70335" lon="5.94724">
        <ele>1482.95</ele>
        <time>2019-10-10T14:08:02Z</time>
      </trkpt>
      <trkpt lat="44.70334" lon="5.94696">
        <ele>1479.41</ele>
        <time>2019-10-10T14:08:16Z</time>
      </trkpt>
      <trkpt lat="44.7034" lon="5.94668">
        <ele>1482.47</ele>
        <time>2019-10-10T14:08:30Z</time>
      </trkpt>
      <trkpt lat="44.70348" lon="5.94646">
        <ele>1482.15</ele>
        <time>2019-10-10T14:08:40Z</time>
      </trkpt>
      <trkpt lat="44.70342" lon="5.9462">
        <ele>1484.92</ele>
        <time>2019-10-10T14:08:52Z</time>
      </trkpt>
      <trkpt lat="44.7034" lon="5.94593">
        <ele>1489.4</ele>
        <time>2019-10-10T14:09:08Z</time>
      </trkpt>
      <trkpt lat="44.70348" lon="5.94567">
        <ele>1488.6</ele>
        <time>2019-10-10T14:09:20Z</time>
      </trkpt>
      <trkpt lat="44.70362" lon="5.94547">
        <ele>1481.71</ele>
        <time>2019-10-10T14:09:30Z</time>
      </trkpt>
      <trkpt lat="44.70373" lon="5.94523">
        <ele>1478.73</ele>
        <time>2019-10-10T14:09:44Z</time>
      </trkpt>
      <trkpt lat="44.70383" lon="5.94499">
        <ele>1477.31</ele>
        <time>2019-10-10T14:10:00Z</time>
      </trkpt>
      <trkpt lat="44.70394" lon="5.94477">
        <ele>1474.7</ele>
        <time>2019-10-10T14:10:12Z</time>
      </trkpt>
      <trkpt lat="44.70412" lon="5.94465">
        <ele>1469.97</ele>
        <time>2019-10-10T14:10:30Z</time>
      </trkpt>
      <trkpt lat="44.7042" lon="5.94436">
        <ele>1471.09</ele>
        <time>2019-10-10T14:10:44Z</time>
      </trkpt>
      <trkpt lat="44.70434" lon="5.94403">
        <ele>1462.12</ele>
        <time>2019-10-10T14:10:58Z</time>
      </trkpt>
      <trkpt lat="44.70445" lon="5.94383">
        <ele>1455.58</ele>
        <time>2019-10-10T14:11:18Z</time>
      </trkpt>
      <trkpt lat="44.70453" lon="5.94359">
        <ele>1451.95</ele>
        <time>2019-10-10T14:11:30Z</time>
      </trkpt>
      <trkpt lat="44.70462" lon="5.94336">
        <ele>1453.95</ele>
        <time>2019-10-10T14:11:42Z</time>
      </trkpt>
      <trkpt lat="44.70481" lon="5.94326">
        <ele>1449.01</ele>
        <time>2019-10-10T14:11:58Z</time>
      </trkpt>
      <trkpt lat="44.70501" lon="5.94316">
        <ele>1450.13</ele>
        <time>2019-10-10T14:12:12Z</time>
      </trkpt>
      <trkpt lat="44.7052" lon="5.94304">
        <ele>1451.98</ele>
        <time>2019-10-10T14:12:24Z</time>
      </trkpt>
      <trkpt lat="44.70536" lon="5.94292">
        <ele>1453.53</ele>
        <time>2019-10-10T14:12:38Z</time>
      </trkpt>
      <trkpt lat="44.70555" lon="5.94287">
        <ele>1448.45</ele>
        <time>2019-10-10T14:12:50Z</time>
      </trkpt>
      <trkpt lat="44.70575" lon="5.94278">
        <ele>1446.57</ele>
        <time>2019-10-10T14:13:06Z</time>
      </trkpt>
      <trkpt lat="44.70582" lon="5.94254">
        <ele>1445.61</ele>
        <time>2019-10-10T14:13:18Z</time>
      </trkpt>
      <trkpt lat="44.70601" lon="5.94248">
        <ele>1444.36</ele>
        <time>2019-10-10T14:13:32Z</time>
      </trkpt>
      <trkpt lat="44.70619" lon="5.9424">
        <ele>1440.8</ele>
        <time>2019-10-10T14:13:44Z</time>
      </trkpt>
      <trkpt lat="44.70637" lon="5.94246">
        <ele>1442.33</ele>
        <time>2019-10-10T14:14:02Z</time>
      </trkpt>
      <trkpt lat="44.70658" lon="5.9424">
        <ele>1439.12</ele>
        <time>2019-10-10T14:14:24Z</time>
      </trkpt>
      <trkpt lat="44.70678" lon="5.94238">
        <ele>1441.54</ele>
        <time>2019-10-10T14:14:38Z</time>
      </trkpt>
      <trkpt lat="44.70696" lon="5.94228">
        <ele>1438.34</ele>
        <time>2019-10-10T14:14:54Z</time>
      </trkpt>
      <trkpt lat="44.70711" lon="5.94211">
        <ele>1439.58</ele>
        <time>2019-10-10T14:15:08Z</time>
      </trkpt>
      <trkpt lat="44.70723" lon="5.9419">
        <ele>1447.04</ele>
        <time>2019-10-10T14:15:22Z</time>
      </trkpt>
      <trkpt lat="44.70737" lon="5.94167">
        <ele>1449.84</ele>
        <time>2019-10-10T14:15:38Z</time>
      </trkpt>
      <trkpt lat="44.70758" lon="5.94151">
        <ele>1443.96</ele>
        <time>2019-10-10T14:15:54Z</time>
      </trkpt>
      <trkpt lat="44.70769" lon="5.94129">
        <ele>1448.05</ele>
        <time>2019-10-10T14:16:08Z</time>
      </trkpt>
      <trkpt lat="44.70783" lon="5.94111">
        <ele>1445.27</ele>
        <time>2019-10-10T14:16:20Z</time>
      </trkpt>
      <trkpt lat="44.70803" lon="5.94104">
        <ele>1449.37</ele>
        <time>2019-10-10T14:16:36Z</time>
      </trkpt>
      <trkpt lat="44.70822" lon="5.94101">
        <ele>1452.45</ele>
        <time>2019-10-10T14:16:54Z</time>
      </trkpt>
      <trkpt lat="44.70842" lon="5.94106">
        <ele>1456.74</ele>
        <time>2019-10-10T14:17:10Z</time>
      </trkpt>
      <trkpt lat="44.70858" lon="5.94092">
        <ele>1456.28</ele>
        <time>2019-10-10T14:17:22Z</time>
      </trkpt>
      <trkpt lat="44.70878" lon="5.94083">
        <ele>1454.79</ele>
        <time>2019-10-10T14:17:38Z</time>
      </trkpt>
      <trkpt lat="44.70885" lon="5.94059">
        <ele>1458</ele>
        <time>2019-10-10T14:17:52Z</time>
      </trkpt>
      <trkpt lat="44.70896" lon="5.94036">
        <ele>1458.16</ele>
        <time>2019-10-10T14:18:06Z</time>
      </trkpt>
      <trkpt lat="44.7091" lon="5.94018">
        <ele>1457.44</ele>
        <time>2019-10-10T14:18:16Z</time>
      </trkpt>
      <trkpt lat="44.70926" lon="5.94001">
        <ele>1457.32</ele>
        <time>2019-10-10T14:18:26Z</time>
      </trkpt>
      <trkpt lat="44.70941" lon="5.93982">
        <ele>1452.75</ele>
        <time>2019-10-10T14:18:46Z</time>
      </trkpt>
      <trkpt lat="44.70959" lon="5.93971">
        <ele>1451.97</ele>
        <time>2019-10-10T14:18:58Z</time>
      </trkpt>
      <trkpt lat="44.70974" lon="5.93953">
        <ele>1456.15</ele>
        <time>2019-10-10T14:19:12Z</time>
      </trkpt>
      <trkpt lat="44.70993" lon="5.93945">
        <ele>1456.31</ele>
        <time>2019-10-10T14:19:26Z</time>
      </trkpt>
      <trkpt lat="44.71014" lon="5.93943">
        <ele>1458.38</ele>
        <time>2019-10-10T14:19:38Z</time>
      </trkpt>
      <trkpt lat="44.71035" lon="5.93938">
        <ele>1457.72</ele>
        <time>2019-10-10T14:19:54Z</time>
      </trkpt>
      <trkpt lat="44.71054" lon="5.93938">
        <ele>1453.08</ele>
        <time>2019-10-10T14:20:06Z</time>
      </trkpt>
      <trkpt lat="44.71076" lon="5.93928">
        <ele>1455.88</ele>
        <time>2019-10-10T14:20:22Z</time>
      </trkpt>
      <trkpt lat="44.71094" lon="5.93923">
        <ele>1460.3</ele>
        <time>2019-10-10T14:20:36Z</time>
      </trkpt>
      <trkpt lat="44.71113" lon="5.93926">
        <ele>1455.7</ele>
        <time>2019-10-10T14:20:46Z</time>
      </trkpt>
      <trkpt lat="44.7113" lon="5.93915">
        <ele>1456.57</ele>
        <time>2019-10-10T14:20:58Z</time>
      </trkpt>
      <trkpt lat="44.71148" lon="5.93909">
        <ele>1458.22</ele>
        <time>2019-10-10T14:21:12Z</time>
      </trkpt>
      <trkpt lat="44.71168" lon="5.93904">
        <ele>1460.44</ele>
        <time>2019-10-10T14:21:28Z</time>
      </trkpt>
      <trkpt lat="44.71188" lon="5.93897">
        <ele>1460.55</ele>
        <time>2019-10-10T14:21:44Z</time>
      </trkpt>
      <trkpt lat="44.71206" lon="5.93895">
        <ele>1458.18</ele>
        <time>2019-10-10T14:21:54Z</time>
      </trkpt>
      <trkpt lat="44.71225" lon="5.93901">
        <ele>1454.55</ele>
        <time>2019-10-10T14:22:02Z</time>
      </trkpt>
      <trkpt lat="44.71242" lon="5.93892">
        <ele>1448.31</ele>
        <time>2019-10-10T14:22:16Z</time>
      </trkpt>
      <trkpt lat="44.71258" lon="5.9388">
        <ele>1453.16</ele>
        <time>2019-10-10T14:22:36Z</time>
      </trkpt>
      <trkpt lat="44.71278" lon="5.93886">
        <ele>1456.15</ele>
        <time>2019-10-10T14:22:46Z</time>
      </trkpt>
      <trkpt lat="44.71291" lon="5.93905">
        <ele>1457.43</ele>
        <time>2019-10-10T14:22:58Z</time>
      </trkpt>
      <trkpt lat="44.71298" lon="5.93929">
        <ele>1462.55</ele>
        <time>2019-10-10T14:23:12Z</time>
      </trkpt>
      <trkpt lat="44.71312" lon="5.93946">
        <ele>1465.33</ele>
        <time>2019-10-10T14:23:28Z</time>
      </trkpt>
      <trkpt lat="44.71331" lon="5.9395">
        <ele>1463.27</ele>
        <time>2019-10-10T14:24:10Z</time>
      </trkpt>
      <trkpt lat="44.71349" lon="5.93935">
        <ele>1467.95</ele>
        <time>2019-10-10T14:24:30Z</time>
      </trkpt>
      <trkpt lat="44.71365" lon="5.93921">
        <ele>1470.36</ele>
        <time>2019-10-10T14:24:48Z</time>
      </trkpt>
      <trkpt lat="44.71384" lon="5.93919">
        <ele>1469.36</ele>
        <time>2019-10-10T14:25:02Z</time>
      </trkpt>
      <trkpt lat="44.71402" lon="5.93916">
        <ele>1467.44</ele>
        <time>2019-10-10T14:25:16Z</time>
      </trkpt>
      <trkpt lat="44.71425" lon="5.93922">
        <ele>1473.51</ele>
        <time>2019-10-10T14:25:36Z</time>
      </trkpt>
      <trkpt lat="44.71442" lon="5.93936">
        <ele>1471.36</ele>
        <time>2019-10-10T14:25:44Z</time>
      </trkpt>
      <trkpt lat="44.71459" lon="5.9395">
        <ele>1468.65</ele>
        <time>2019-10-10T14:26:00Z</time>
      </trkpt>
      <trkpt lat="44.71474" lon="5.9397">
        <ele>1468.23</ele>
        <time>2019-10-10T14:26:18Z</time>
      </trkpt>
      <trkpt lat="44.71493" lon="5.93975">
        <ele>1470.93</ele>
        <time>2019-10-10T14:26:32Z</time>
      </trkpt>
      <trkpt lat="44.71511" lon="5.93988">
        <ele>1472.21</ele>
        <time>2019-10-10T14:26:48Z</time>
      </trkpt>
      <trkpt lat="44.71527" lon="5.94002">
        <ele>1473.54</ele>
        <time>2019-10-10T14:26:56Z</time>
      </trkpt>
      <trkpt lat="44.71541" lon="5.94019">
        <ele>1478.17</ele>
        <time>2019-10-10T14:27:08Z</time>
      </trkpt>
      <trkpt lat="44.71557" lon="5.94001">
        <ele>1478.37</ele>
        <time>2019-10-10T14:27:24Z</time>
      </trkpt>
      <trkpt lat="44.7156" lon="5.93976">
        <ele>1480.7</ele>
        <time>2019-10-10T14:27:38Z</time>
      </trkpt>
      <trkpt lat="44.71572" lon="5.93953">
        <ele>1479.38</ele>
        <time>2019-10-10T14:27:50Z</time>
      </trkpt>
      <trkpt lat="44.71593" lon="5.93965">
        <ele>1473.31</ele>
        <time>2019-10-10T14:28:08Z</time>
      </trkpt>
      <trkpt lat="44.71596" lon="5.9394">
        <ele>1473.72</ele>
        <time>2019-10-10T14:28:30Z</time>
      </trkpt>
      <trkpt lat="44.7158" lon="5.93926">
        <ele>1471.98</ele>
        <time>2019-10-10T14:28:38Z</time>
      </trkpt>
      <trkpt lat="44.71561" lon="5.93909">
        <ele>1472.38</ele>
        <time>2019-10-10T14:28:54Z</time>
      </trkpt>
      <trkpt lat="44.71565" lon="5.93884">
        <ele>1463.16</ele>
        <time>2019-10-10T14:29:36Z</time>
      </trkpt>
      <trkpt lat="44.71546" lon="5.93876">
        <ele>1454.52</ele>
        <time>2019-10-10T14:29:52Z</time>
      </trkpt>
      <trkpt lat="44.71556" lon="5.9385">
        <ele>1456.91</ele>
        <time>2019-10-10T14:30:14Z</time>
      </trkpt>
      <trkpt lat="44.71547" lon="5.93824">
        <ele>1442.91</ele>
        <time>2019-10-10T14:30:54Z</time>
      </trkpt>
      <trkpt lat="44.71529" lon="5.93812">
        <ele>1420.47</ele>
        <time>2019-10-10T14:31:08Z</time>
      </trkpt>
      <trkpt lat="44.71515" lon="5.93792">
        <ele>1419.34</ele>
        <time>2019-10-10T14:31:18Z</time>
      </trkpt>
      <trkpt lat="44.7151" lon="5.93766">
        <ele>1424.24</ele>
        <time>2019-10-10T14:31:30Z</time>
      </trkpt>
      <trkpt lat="44.7153" lon="5.93767">
        <ele>1419.29</ele>
        <time>2019-10-10T14:31:58Z</time>
      </trkpt>
      <trkpt lat="44.71551" lon="5.93783">
        <ele>1416.22</ele>
        <time>2019-10-10T14:32:10Z</time>
      </trkpt>
      <trkpt lat="44.71569" lon="5.9377">
        <ele>1411.25</ele>
        <time>2019-10-10T14:32:28Z</time>
      </trkpt>
      <trkpt lat="44.71586" lon="5.93759">
        <ele>1405.53</ele>
        <time>2019-10-10T14:32:42Z</time>
      </trkpt>
      <trkpt lat="44.71568" lon="5.93747">
        <ele>1391.68</ele>
        <time>2019-10-10T14:34:12Z</time>
      </trkpt>
      <trkpt lat="44.71558" lon="5.93723">
        <ele>1385.88</ele>
        <time>2019-10-10T14:34:30Z</time>
      </trkpt>
      <trkpt lat="44.71542" lon="5.93704">
        <ele>1390.71</ele>
        <time>2019-10-10T14:34:42Z</time>
      </trkpt>
      <trkpt lat="44.71554" lon="5.93685">
        <ele>1370.52</ele>
        <time>2019-10-10T14:35:22Z</time>
      </trkpt>
      <trkpt lat="44.71557" lon="5.93659">
        <ele>1352.42</ele>
        <time>2019-10-10T14:35:50Z</time>
      </trkpt>
      <trkpt lat="44.71552" lon="5.93633">
        <ele>1351.65</ele>
        <time>2019-10-10T14:36:08Z</time>
      </trkpt>
      <trkpt lat="44.71543" lon="5.93607">
        <ele>1345.38</ele>
        <time>2019-10-10T14:36:24Z</time>
      </trkpt>
      <trkpt lat="44.71537" lon="5.93581">
        <ele>1340.57</ele>
        <time>2019-10-10T14:36:46Z</time>
      </trkpt>
      <trkpt lat="44.71527" lon="5.93558">
        <ele>1330.57</ele>
        <time>2019-10-10T14:37:10Z</time>
      </trkpt>
      <trkpt lat="44.71507" lon="5.93554">
        <ele>1324.2</ele>
        <time>2019-10-10T14:37:34Z</time>
      </trkpt>
      <trkpt lat="44.71497" lon="5.93526">
        <ele>1314.38</ele>
        <time>2019-10-10T14:37:48Z</time>
      </trkpt>
      <trkpt lat="44.71478" lon="5.93512">
        <ele>1309.34</ele>
        <time>2019-10-10T14:38:00Z</time>
      </trkpt>
      <trkpt lat="44.71466" lon="5.93492">
        <ele>1303.14</ele>
        <time>2019-10-10T14:38:24Z</time>
      </trkpt>
      <trkpt lat="44.71453" lon="5.93472">
        <ele>1287.32</ele>
        <time>2019-10-10T14:38:42Z</time>
      </trkpt>
      <trkpt lat="44.71439" lon="5.93451">
        <ele>1282.4</ele>
        <time>2019-10-10T14:38:56Z</time>
      </trkpt>
      <trkpt lat="44.7142" lon="5.93442">
        <ele>1272.4</ele>
        <time>2019-10-10T14:39:18Z</time>
      </trkpt>
      <trkpt lat="44.71416" lon="5.9341">
        <ele>1257.49</ele>
        <time>2019-10-10T14:39:36Z</time>
      </trkpt>
      <trkpt lat="44.71406" lon="5.93385">
        <ele>1253.39</ele>
        <time>2019-10-10T14:39:52Z</time>
      </trkpt>
      <trkpt lat="44.71391" lon="5.93369">
        <ele>1258.72</ele>
        <time>2019-10-10T14:40:06Z</time>
      </trkpt>
      <trkpt lat="44.71402" lon="5.93346">
        <ele>1252.21</ele>
        <time>2019-10-10T14:40:18Z</time>
      </trkpt>
      <trkpt lat="44.71419" lon="5.93338">
        <ele>1255.56</ele>
        <time>2019-10-10T14:40:32Z</time>
      </trkpt>
      <trkpt lat="44.71435" lon="5.93319">
        <ele>1253.17</ele>
        <time>2019-10-10T14:40:44Z</time>
      </trkpt>
      <trkpt lat="44.71451" lon="5.93298">
        <ele>1252.02</ele>
        <time>2019-10-10T14:40:58Z</time>
      </trkpt>
      <trkpt lat="44.71452" lon="5.93273">
        <ele>1258.8</ele>
        <time>2019-10-10T14:41:10Z</time>
      </trkpt>
      <trkpt lat="44.7146" lon="5.93247">
        <ele>1252.49</ele>
        <time>2019-10-10T14:41:26Z</time>
      </trkpt>
      <trkpt lat="44.71478" lon="5.93237">
        <ele>1247.16</ele>
        <time>2019-10-10T14:41:36Z</time>
      </trkpt>
      <trkpt lat="44.71497" lon="5.93235">
        <ele>1254.54</ele>
        <time>2019-10-10T14:41:50Z</time>
      </trkpt>
      <trkpt lat="44.71516" lon="5.93229">
        <ele>1253.52</ele>
        <time>2019-10-10T14:42:10Z</time>
      </trkpt>
      <trkpt lat="44.71536" lon="5.93228">
        <ele>1263.68</ele>
        <time>2019-10-10T14:42:24Z</time>
      </trkpt>
      <trkpt lat="44.71544" lon="5.93206">
        <ele>1255.77</ele>
        <time>2019-10-10T14:42:36Z</time>
      </trkpt>
      <trkpt lat="44.7155" lon="5.93181">
        <ele>1259.58</ele>
        <time>2019-10-10T14:42:48Z</time>
      </trkpt>
      <trkpt lat="44.71559" lon="5.93154">
        <ele>1261.52</ele>
        <time>2019-10-10T14:43:04Z</time>
      </trkpt>
      <trkpt lat="44.71576" lon="5.93137">
        <ele>1261.36</ele>
        <time>2019-10-10T14:43:16Z</time>
      </trkpt>
      <trkpt lat="44.71591" lon="5.93121">
        <ele>1263.27</ele>
        <time>2019-10-10T14:43:32Z</time>
      </trkpt>
      <trkpt lat="44.7161" lon="5.93107">
        <ele>1264.96</ele>
        <time>2019-10-10T14:43:46Z</time>
      </trkpt>
      <trkpt lat="44.71628" lon="5.93092">
        <ele>1261.68</ele>
        <time>2019-10-10T14:44:02Z</time>
      </trkpt>
      <trkpt lat="44.71649" lon="5.93086">
        <ele>1258.24</ele>
        <time>2019-10-10T14:44:16Z</time>
      </trkpt>
      <trkpt lat="44.71666" lon="5.93074">
        <ele>1263.25</ele>
        <time>2019-10-10T14:44:28Z</time>
      </trkpt>
      <trkpt lat="44.71678" lon="5.93053">
        <ele>1264.55</ele>
        <time>2019-10-10T14:44:42Z</time>
      </trkpt>
      <trkpt lat="44.71686" lon="5.93029">
        <ele>1267.06</ele>
        <time>2019-10-10T14:44:54Z</time>
      </trkpt>
      <trkpt lat="44.71698" lon="5.9301">
        <ele>1262.77</ele>
        <time>2019-10-10T14:45:06Z</time>
      </trkpt>
      <trkpt lat="44.71709" lon="5.92983">
        <ele>1269.53</ele>
        <time>2019-10-10T14:45:24Z</time>
      </trkpt>
      <trkpt lat="44.71724" lon="5.92963">
        <ele>1266.37</ele>
        <time>2019-10-10T14:45:40Z</time>
      </trkpt>
      <trkpt lat="44.71733" lon="5.9294">
        <ele>1266.34</ele>
        <time>2019-10-10T14:45:52Z</time>
      </trkpt>
      <trkpt lat="44.71746" lon="5.9292">
        <ele>1268.44</ele>
        <time>2019-10-10T14:46:08Z</time>
      </trkpt>
      <trkpt lat="44.71761" lon="5.92903">
        <ele>1265.13</ele>
        <time>2019-10-10T14:46:18Z</time>
      </trkpt>
      <trkpt lat="44.71773" lon="5.92878">
        <ele>1270.48</ele>
        <time>2019-10-10T14:46:34Z</time>
      </trkpt>
      <trkpt lat="44.71789" lon="5.92863">
        <ele>1262.35</ele>
        <time>2019-10-10T14:46:50Z</time>
      </trkpt>
      <trkpt lat="44.7181" lon="5.9285">
        <ele>1263.33</ele>
        <time>2019-10-10T14:47:02Z</time>
      </trkpt>
      <trkpt lat="44.71821" lon="5.92829">
        <ele>1268.49</ele>
        <time>2019-10-10T14:47:16Z</time>
      </trkpt>
      <trkpt lat="44.71838" lon="5.92815">
        <ele>1269.93</ele>
        <time>2019-10-10T14:47:30Z</time>
      </trkpt>
      <trkpt lat="44.71857" lon="5.92804">
        <ele>1270.32</ele>
        <time>2019-10-10T14:47:46Z</time>
      </trkpt>
      <trkpt lat="44.71873" lon="5.92794">
        <ele>1272.68</ele>
        <time>2019-10-10T14:47:58Z</time>
      </trkpt>
      <trkpt lat="44.71895" lon="5.92793">
        <ele>1272.26</ele>
        <time>2019-10-10T14:48:18Z</time>
      </trkpt>
      <trkpt lat="44.71912" lon="5.92773">
        <ele>1271.36</ele>
        <time>2019-10-10T14:48:28Z</time>
      </trkpt>
      <trkpt lat="44.71931" lon="5.92778">
        <ele>1269.2</ele>
        <time>2019-10-10T14:48:46Z</time>
      </trkpt>
      <trkpt lat="44.71949" lon="5.92785">
        <ele>1268.92</ele>
        <time>2019-10-10T14:48:58Z</time>
      </trkpt>
      <trkpt lat="44.71967" lon="5.92784">
        <ele>1279.51</ele>
        <time>2019-10-10T14:49:14Z</time>
      </trkpt>
      <trkpt lat="44.71976" lon="5.92761">
        <ele>1282.36</ele>
        <time>2019-10-10T14:49:34Z</time>
      </trkpt>
      <trkpt lat="44.71985" lon="5.92735">
        <ele>1282.35</ele>
        <time>2019-10-10T14:49:52Z</time>
      </trkpt>
      <trkpt lat="44.71995" lon="5.92709">
        <ele>1276.27</ele>
        <time>2019-10-10T14:50:06Z</time>
      </trkpt>
      <trkpt lat="44.72015" lon="5.92701">
        <ele>1271.51</ele>
        <time>2019-10-10T14:50:24Z</time>
      </trkpt>
      <trkpt lat="44.72033" lon="5.92691">
        <ele>1280.52</ele>
        <time>2019-10-10T14:50:42Z</time>
      </trkpt>
      <trkpt lat="44.72052" lon="5.92681">
        <ele>1283.35</ele>
        <time>2019-10-10T14:50:56Z</time>
      </trkpt>
      <trkpt lat="44.72064" lon="5.92661">
        <ele>1288.18</ele>
        <time>2019-10-10T14:51:18Z</time>
      </trkpt>
      <trkpt lat="44.72082" lon="5.92651">
        <ele>1292.27</ele>
        <time>2019-10-10T14:51:34Z</time>
      </trkpt>
      <trkpt lat="44.72097" lon="5.92638">
        <ele>1295.3</ele>
        <time>2019-10-10T14:51:52Z</time>
      </trkpt>
      <trkpt lat="44.72113" lon="5.92655">
        <ele>1295.3</ele>
        <time>2019-10-10T14:52:14Z</time>
      </trkpt>
      <trkpt lat="44.72129" lon="5.9264">
        <ele>1290.34</ele>
        <time>2019-10-10T14:52:42Z</time>
      </trkpt>
      <trkpt lat="44.72149" lon="5.92644">
        <ele>1292.59</ele>
        <time>2019-10-10T14:53:00Z</time>
      </trkpt>
      <trkpt lat="44.72168" lon="5.92642">
        <ele>1286.29</ele>
        <time>2019-10-10T14:53:20Z</time>
      </trkpt>
    </trkseg>
  </trk>
</gpx>